Terminal Aerodrome Forecast
Issued by NWS

Home | Current Version | Previous Version | Text Only | Print | Product List | Glossary On
Versions: 1 2 3 4 5 6 7 8 9 10 11 12 13 14
820
FTUS41 KPHI 052320
TAFMIV
TAF
KMIV 052320Z 0600/0624 32003KT P6SM SCT250
     FM060600 02003KT P6SM BKN250
     FM061700 09008KT P6SM OVC070
     FM061900 09010KT 3SM -RA BR OVC015=

USA.gov is the U.S. government's official web portal to all federal, state and local government web resources and services.